sensor_id;sensor_type;location;lat;lon;timestamp;P1;durP1;ratioP1;P2;durP2;ratioP2
30335;SDS011;17142;47.990;7.846;2022-11-12T00:00:47;5.00;;;3.47;;
30335;SDS011;17142;47.990;7.846;2022-11-12T00:03:13;5.20;;;3.40;;
30335;SDS011;17142;47.990;7.846;2022-11-12T00:05:42;3.73;;;3.00;;
30335;SDS011;17142;47.990;7.846;2022-11-12T00:08:08;6.83;;;2.80;;
30335;SDS011;17142;47.990;7.846;2022-11-12T00:10:34;4.40;;;3.00;;
30335;SDS011;17142;47.990;7.846;2022-11-12T00:13:02;3.27;;;2.80;;
30335;SDS011;17142;47.990;7.846;2022-11-12T00:15:33;2.80;;;2.50;;
30335;SDS011;17142;47.990;7.846;2022-11-12T00:18:01;4.00;;;3.50;;
30335;SDS011;17142;47.990;7.846;2022-11-12T00:20:26;4.30;;;3.30;;
30335;SDS011;17142;47.990;7.846;2022-11-12T00:22:52;4.83;;;2.83;;
30335;SDS011;17142;47.990;7.846;2022-11-12T00:25:17;3.40;;;3.03;;
30335;SDS011;17142;47.990;7.846;2022-11-12T00:27:43;2.67;;;2.47;;
30335;SDS011;17142;47.990;7.846;2022-11-12T00:30:09;3.10;;;2.33;;
30335;SDS011;17142;47.990;7.846;2022-11-12T00:32:36;3.00;;;2.57;;
30335;SDS011;17142;47.990;7.846;2022-11-12T00:35:03;2.90;;;2.07;;
30335;SDS011;17142;47.990;7.846;2022-11-12T00:37:29;3.03;;;2.83;;
30335;SDS011;17142;47.990;7.846;2022-11-12T00:39:55;3.13;;;2.20;;
30335;SDS011;17142;47.990;7.846;2022-11-12T00:42:23;2.67;;;2.47;;
30335;SDS011;17142;47.990;7.846;2022-11-12T00:44:48;3.40;;;2.50;;
30335;SDS011;17142;47.990;7.846;2022-11-12T00:47:14;3.60;;;2.30;;
30335;SDS011;17142;47.990;7.846;2022-11-12T00:49:40;2.10;;;1.90;;
30335;SDS011;17142;47.990;7.846;2022-11-12T00:52:06;3.13;;;2.33;;
30335;SDS011;17142;47.990;7.846;2022-11-12T00:54:34;3.23;;;2.20;;
30335;SDS011;17142;47.990;7.846;2022-11-12T00:57:02;3.33;;;2.73;;
30335;SDS011;17142;47.990;7.846;2022-11-12T00:59:27;2.43;;;2.23;;
30335;SDS011;17142;47.990;7.846;2022-11-12T01:01:53;3.80;;;2.93;;
30335;SDS011;17142;47.990;7.846;2022-11-12T01:04:19;3.47;;;2.90;;
30335;SDS011;17142;47.990;7.846;2022-11-12T01:06:44;4.13;;;2.90;;
30335;SDS011;17142;47.990;7.846;2022-11-12T01:09:13;3.87;;;2.57;;
30335;SDS011;17142;47.990;7.846;2022-11-12T01:11:39;3.70;;;2.70;;
30335;SDS011;17142;47.990;7.846;2022-11-12T01:14:06;3.30;;;3.00;;
30335;SDS011;17142;47.990;7.846;2022-11-12T01:16:34;3.37;;;2.73;;
30335;SDS011;17142;47.990;7.846;2022-11-12T01:19:03;4.60;;;3.20;;
30335;SDS011;17142;47.990;7.846;2022-11-12T01:21:30;5.93;;;3.77;;
30335;SDS011;17142;47.990;7.846;2022-11-12T01:23:58;7.60;;;6.50;;
30335;SDS011;17142;47.990;7.846;2022-11-12T01:26:27;9.47;;;8.27;;
30335;SDS011;17142;47.990;7.846;2022-11-12T01:28:57;9.70;;;7.60;;
30335;SDS011;17142;47.990;7.846;2022-11-12T01:31:23;11.03;;;7.93;;
30335;SDS011;17142;47.990;7.846;2022-11-12T01:33:52;8.43;;;7.40;;
30335;SDS011;17142;47.990;7.846;2022-11-12T01:36:24;9.33;;;8.33;;
30335;SDS011;17142;47.990;7.846;2022-11-12T01:38:51;10.23;;;7.97;;
30335;SDS011;17142;47.990;7.846;2022-11-12T01:41:20;10.57;;;8.20;;
30335;SDS011;17142;47.990;7.846;2022-11-12T01:47:01;17.07;;;12.70;;
30335;SDS011;17142;47.990;7.846;2022-11-12T01:49:44;16.20;;;11.30;;
30335;SDS011;17142;47.990;7.846;2022-11-12T01:52:34;15.30;;;11.13;;
30335;SDS011;17142;47.990;7.846;2022-11-12T01:55:08;13.13;;;9.60;;
30335;SDS011;17142;47.990;7.846;2022-11-12T01:57:58;12.80;;;10.07;;
30335;SDS011;17142;47.990;7.846;2022-11-12T02:00:29;9.70;;;8.37;;
30335;SDS011;17142;47.990;7.846;2022-11-12T02:02:56;14.30;;;10.27;;
30335;SDS011;17142;47.990;7.846;2022-11-12T02:05:27;14.83;;;10.10;;
30335;SDS011;17142;47.990;7.846;2022-11-12T02:07:54;16.00;;;10.30;;
30335;SDS011;17142;47.990;7.846;2022-11-12T02:10:22;12.00;;;9.50;;
30335;SDS011;17142;47.990;7.846;2022-11-12T02:12:48;11.80;;;9.30;;
30335;SDS011;17142;47.990;7.846;2022-11-12T02:15:35;8.77;;;7.90;;
30335;SDS011;17142;47.990;7.846;2022-11-12T02:18:04;10.13;;;8.70;;
30335;SDS011;17142;47.990;7.846;2022-11-12T02:20:36;12.10;;;8.10;;
30335;SDS011;17142;47.990;7.846;2022-11-12T02:23:03;7.87;;;6.97;;
30335;SDS011;17142;47.990;7.846;2022-11-12T02:25:30;9.20;;;8.13;;
30335;SDS011;17142;47.990;7.846;2022-11-12T02:27:56;8.30;;;7.40;;
30335;SDS011;17142;47.990;7.846;2022-11-12T02:30:33;8.07;;;6.13;;
30335;SDS011;17142;47.990;7.846;2022-11-12T02:33:01;12.30;;;6.77;;
30335;SDS011;17142;47.990;7.846;2022-11-12T02:35:28;7.60;;;6.80;;
30335;SDS011;17142;47.990;7.846;2022-11-12T02:37:58;11.90;;;8.00;;
30335;SDS011;17142;47.990;7.846;2022-11-12T02:40:24;10.20;;;8.17;;
30335;SDS011;17142;47.990;7.846;2022-11-12T02:42:52;9.20;;;7.73;;
30335;SDS011;17142;47.990;7.846;2022-11-12T02:45:17;11.80;;;7.83;;
30335;SDS011;17142;47.990;7.846;2022-11-12T02:47:43;9.13;;;6.87;;
30335;SDS011;17142;47.990;7.846;2022-11-12T02:50:09;8.23;;;7.00;;
30335;SDS011;17142;47.990;7.846;2022-11-12T02:52:38;11.43;;;9.00;;
30335;SDS011;17142;47.990;7.846;2022-11-12T02:55:08;10.90;;;8.33;;
30335;SDS011;17142;47.990;7.846;2022-11-12T02:57:35;11.03;;;8.03;;
30335;SDS011;17142;47.990;7.846;2022-11-12T03:00:06;9.77;;;8.47;;
30335;SDS011;17142;47.990;7.846;2022-11-12T03:02:36;21.50;;;12.73;;
30335;SDS011;17142;47.990;7.846;2022-11-12T03:05:07;17.37;;;11.00;;
30335;SDS011;17142;47.990;7.846;2022-11-12T03:07:34;18.80;;;11.53;;
30335;SDS011;17142;47.990;7.846;2022-11-12T03:10:02;17.23;;;11.40;;
30335;SDS011;17142;47.990;7.846;2022-11-12T03:12:31;14.23;;;10.20;;
30335;SDS011;17142;47.990;7.846;2022-11-12T03:14:59;11.10;;;8.60;;
30335;SDS011;17142;47.990;7.846;2022-11-12T03:17:25;15.47;;;8.93;;
30335;SDS011;17142;47.990;7.846;2022-11-12T03:19:50;9.30;;;8.30;;
30335;SDS011;17142;47.990;7.846;2022-11-12T03:22:16;9.27;;;7.70;;
30335;SDS011;17142;47.990;7.846;2022-11-12T03:24:41;13.47;;;7.53;;
30335;SDS011;17142;47.990;7.846;2022-11-12T03:27:07;15.13;;;7.67;;
30335;SDS011;17142;47.990;7.846;2022-11-12T03:29:32;10.43;;;6.40;;
30335;SDS011;17142;47.990;7.846;2022-11-12T03:31:58;6.87;;;4.97;;
30335;SDS011;17142;47.990;7.846;2022-11-12T03:34:23;6.83;;;5.10;;
30335;SDS011;17142;47.990;7.846;2022-11-12T03:36:49;5.87;;;4.70;;
30335;SDS011;17142;47.990;7.846;2022-11-12T03:39:17;6.70;;;4.80;;
30335;SDS011;17142;47.990;7.846;2022-11-12T03:41:43;5.27;;;2.93;;
30335;SDS011;17142;47.990;7.846;2022-11-12T03:44:08;5.50;;;3.83;;
30335;SDS011;17142;47.990;7.846;2022-11-12T03:46:34;4.10;;;3.10;;
30335;SDS011;17142;47.990;7.846;2022-11-12T03:49:00;2.37;;;2.17;;
30335;SDS011;17142;47.990;7.846;2022-11-12T03:51:26;3.17;;;2.93;;
30335;SDS011;17142;47.990;7.846;2022-11-12T03:53:52;3.10;;;2.73;;
30335;SDS011;17142;47.990;7.846;2022-11-12T03:56:17;8.40;;;2.47;;
30335;SDS011;17142;47.990;7.846;2022-11-12T03:58:43;2.43;;;2.23;;
30335;SDS011;17142;47.990;7.846;2022-11-12T04:01:08;3.33;;;2.30;;
30335;SDS011;17142;47.990;7.846;2022-11-12T04:03:34;2.60;;;2.10;;
30335;SDS011;17142;47.990;7.846;2022-11-12T04:06:00;4.23;;;2.50;;
30335;SDS011;17142;47.990;7.846;2022-11-12T04:08:44;2.83;;;2.63;;
30335;SDS011;17142;47.990;7.846;2022-11-12T04:11:16;4.27;;;3.07;;
30335;SDS011;17142;47.990;7.846;2022-11-12T04:13:42;3.30;;;3.00;;
30335;SDS011;17142;47.990;7.846;2022-11-12T04:16:20;4.30;;;2.50;;
30335;SDS011;17142;47.990;7.846;2022-11-12T04:19:06;3.93;;;2.83;;
30335;SDS011;17142;47.990;7.846;2022-11-12T04:21:56;2.70;;;2.50;;
30335;SDS011;17142;47.990;7.846;2022-11-12T04:24:31;2.97;;;2.60;;
30335;SDS011;17142;47.990;7.846;2022-11-12T04:27:23;2.53;;;2.33;;
30335;SDS011;17142;47.990;7.846;2022-11-12T04:29:56;3.43;;;3.03;;
30335;SDS011;17142;47.990;7.846;2022-11-12T04:35:11;3.57;;;3.27;;
30335;SDS011;17142;47.990;7.846;2022-11-12T04:37:39;2.40;;;2.20;;
30335;SDS011;17142;47.990;7.846;2022-11-12T04:40:14;3.30;;;3.00;;
30335;SDS011;17142;47.990;7.846;2022-11-12T04:43:00;3.27;;;2.97;;
30335;SDS011;17142;47.990;7.846;2022-11-12T04:45:46;3.73;;;3.30;;
30335;SDS011;17142;47.990;7.846;2022-11-12T04:48:18;5.13;;;3.70;;
30335;SDS011;17142;47.990;7.846;2022-11-12T04:50:44;3.30;;;3.00;;
30335;SDS011;17142;47.990;7.846;2022-11-12T04:53:13;2.63;;;2.20;;
30335;SDS011;17142;47.990;7.846;2022-11-12T04:55:39;2.60;;;2.40;;
30335;SDS011;17142;47.990;7.846;2022-11-12T04:58:07;2.60;;;2.40;;
30335;SDS011;17142;47.990;7.846;2022-11-12T05:00:35;2.83;;;2.63;;
30335;SDS011;17142;47.990;7.846;2022-11-12T05:03:00;2.30;;;2.10;;
30335;SDS011;17142;47.990;7.846;2022-11-12T05:05:26;2.50;;;2.30;;
30335;SDS011;17142;47.990;7.846;2022-11-12T05:07:51;2.63;;;2.43;;
30335;SDS011;17142;47.990;7.846;2022-11-12T05:10:17;2.73;;;2.07;;
30335;SDS011;17142;47.990;7.846;2022-11-12T05:12:43;2.87;;;2.67;;
30335;SDS011;17142;47.990;7.846;2022-11-12T05:15:13;3.67;;;3.37;;
30335;SDS011;17142;47.990;7.846;2022-11-12T05:17:42;3.70;;;3.00;;
30335;SDS011;17142;47.990;7.846;2022-11-12T05:20:09;4.23;;;3.40;;
30335;SDS011;17142;47.990;7.846;2022-11-12T05:22:38;6.20;;;3.47;;
30335;SDS011;17142;47.990;7.846;2022-11-12T05:25:06;4.67;;;3.43;;
30335;SDS011;17142;47.990;7.846;2022-11-12T05:27:32;4.73;;;3.40;;
30335;SDS011;17142;47.990;7.846;2022-11-12T05:30:03;4.30;;;3.77;;
30335;SDS011;17142;47.990;7.846;2022-11-12T05:32:29;3.87;;;3.20;;
30335;SDS011;17142;47.990;7.846;2022-11-12T05:34:55;5.63;;;3.27;;
30335;SDS011;17142;47.990;7.846;2022-11-12T05:37:21;6.80;;;4.03;;
30335;SDS011;17142;47.990;7.846;2022-11-12T05:39:46;7.67;;;3.40;;
30335;SDS011;17142;47.990;7.846;2022-11-12T05:42:12;4.23;;;3.50;;
30335;SDS011;17142;47.990;7.846;2022-11-12T05:44:37;6.03;;;3.97;;
30335;SDS011;17142;47.990;7.846;2022-11-12T05:47:03;6.40;;;4.50;;
30335;SDS011;17142;47.990;7.846;2022-11-12T05:49:29;7.13;;;3.60;;
30335;SDS011;17142;47.990;7.846;2022-11-12T05:51:56;11.50;;;4.43;;
30335;SDS011;17142;47.990;7.846;2022-11-12T05:54:27;4.33;;;3.90;;
30335;SDS011;17142;47.990;7.846;2022-11-12T05:56:55;4.50;;;3.63;;
30335;SDS011;17142;47.990;7.846;2022-11-12T05:59:25;5.17;;;4.00;;
30335;SDS011;17142;47.990;7.846;2022-11-12T06:01:51;3.10;;;2.80;;
30335;SDS011;17142;47.990;7.846;2022-11-12T06:04:19;4.80;;;3.03;;
30335;SDS011;17142;47.990;7.846;2022-11-12T06:06:45;3.00;;;2.70;;
30335;SDS011;17142;47.990;7.846;2022-11-12T06:09:10;4.43;;;2.40;;
30335;SDS011;17142;47.990;7.846;2022-11-12T06:11:39;4.67;;;3.17;;
30335;SDS011;17142;47.990;7.846;2022-11-12T06:14:10;2.93;;;2.20;;
30335;SDS011;17142;47.990;7.846;2022-11-12T06:16:38;2.83;;;2.40;;
30335;SDS011;17142;47.990;7.846;2022-11-12T06:19:06;3.20;;;2.90;;
30335;SDS011;17142;47.990;7.846;2022-11-12T06:21:34;3.20;;;3.00;;
30335;SDS011;17142;47.990;7.846;2022-11-12T06:24:00;3.13;;;2.83;;
30335;SDS011;17142;47.990;7.846;2022-11-12T06:26:28;2.87;;;2.60;;
30335;SDS011;17142;47.990;7.846;2022-11-12T06:28:54;3.20;;;2.90;;
30335;SDS011;17142;47.990;7.846;2022-11-12T06:31:21;5.20;;;3.27;;
30335;SDS011;17142;47.990;7.846;2022-11-12T06:33:47;3.23;;;2.93;;
30335;SDS011;17142;47.990;7.846;2022-11-12T06:36:17;2.77;;;2.57;;
30335;SDS011;17142;47.990;7.846;2022-11-12T06:38:50;3.97;;;3.57;;
30335;SDS011;17142;47.990;7.846;2022-11-12T06:41:16;3.73;;;3.27;;
30335;SDS011;17142;47.990;7.846;2022-11-12T06:43:44;3.30;;;3.00;;
30335;SDS011;17142;47.990;7.846;2022-11-12T06:46:11;3.73;;;3.20;;
30335;SDS011;17142;47.990;7.846;2022-11-12T06:48:38;3.33;;;3.03;;
30335;SDS011;17142;47.990;7.846;2022-11-12T06:51:05;5.23;;;3.00;;
30335;SDS011;17142;47.990;7.846;2022-11-12T06:53:32;3.20;;;2.90;;
30335;SDS011;17142;47.990;7.846;2022-11-12T06:56:01;3.90;;;3.10;;
30335;SDS011;17142;47.990;7.846;2022-11-12T06:58:28;5.00;;;3.03;;
30335;SDS011;17142;47.990;7.846;2022-11-12T07:00:58;3.23;;;2.93;;
30335;SDS011;17142;47.990;7.846;2022-11-12T07:03:38;5.03;;;3.47;;
30335;SDS011;17142;47.990;7.846;2022-11-12T07:06:09;3.73;;;2.57;;
30335;SDS011;17142;47.990;7.846;2022-11-12T07:08:39;2.80;;;2.60;;
30335;SDS011;17142;47.990;7.846;2022-11-12T07:11:10;2.70;;;2.50;;
30335;SDS011;17142;47.990;7.846;2022-11-12T07:13:36;4.33;;;3.47;;
30335;SDS011;17142;47.990;7.846;2022-11-12T07:16:03;4.57;;;3.70;;
30335;SDS011;17142;47.990;7.846;2022-11-12T07:18:30;4.80;;;3.50;;
30335;SDS011;17142;47.990;7.846;2022-11-12T07:20:59;4.53;;;3.60;;
30335;SDS011;17142;47.990;7.846;2022-11-12T07:23:30;6.50;;;4.73;;
30335;SDS011;17142;47.990;7.846;2022-11-12T07:25:57;7.90;;;5.50;;
30335;SDS011;17142;47.990;7.846;2022-11-12T07:28:28;6.17;;;5.53;;
30335;SDS011;17142;47.990;7.846;2022-11-12T07:30:57;8.43;;;4.60;;
30335;SDS011;17142;47.990;7.846;2022-11-12T07:33:30;5.67;;;4.70;;
30335;SDS011;17142;47.990;7.846;2022-11-12T07:36:03;7.93;;;4.83;;
30335;SDS011;17142;47.990;7.846;2022-11-12T07:38:31;5.40;;;4.33;;
30335;SDS011;17142;47.990;7.846;2022-11-12T07:41:09;8.90;;;6.60;;
30335;SDS011;17142;47.990;7.846;2022-11-12T07:43:43;9.10;;;7.10;;
30335;SDS011;17142;47.990;7.846;2022-11-12T07:46:13;11.60;;;7.10;;
30335;SDS011;17142;47.990;7.846;2022-11-12T07:48:41;7.60;;;6.80;;
30335;SDS011;17142;47.990;7.846;2022-11-12T07:51:15;13.03;;;6.60;;
30335;SDS011;17142;47.990;7.846;2022-11-12T07:53:43;24.33;;;7.67;;
30335;SDS011;17142;47.990;7.846;2022-11-12T07:56:11;9.03;;;6.97;;
30335;SDS011;17142;47.990;7.846;2022-11-12T07:58:41;15.27;;;7.73;;
30335;SDS011;17142;47.990;7.846;2022-11-12T08:03:36;9.13;;;6.80;;
30335;SDS011;17142;47.990;7.846;2022-11-12T08:06:02;8.97;;;6.90;;
30335;SDS011;17142;47.990;7.846;2022-11-12T08:08:27;10.97;;;8.30;;
30335;SDS011;17142;47.990;7.846;2022-11-12T08:10:56;8.63;;;6.80;;
30335;SDS011;17142;47.990;7.846;2022-11-12T08:13:22;30.40;;;7.13;;
30335;SDS011;17142;47.990;7.846;2022-11-12T08:15:48;12.87;;;6.13;;
30335;SDS011;17142;47.990;7.846;2022-11-12T08:18:14;6.47;;;5.53;;
30335;SDS011;17142;47.990;7.846;2022-11-12T08:20:40;7.97;;;6.17;;
30335;SDS011;17142;47.990;7.846;2022-11-12T08:23:06;9.47;;;6.00;;
30335;SDS011;17142;47.990;7.846;2022-11-12T08:25:32;7.90;;;6.40;;
30335;SDS011;17142;47.990;7.846;2022-11-12T08:28:00;10.57;;;7.20;;
30335;SDS011;17142;47.990;7.846;2022-11-12T08:30:29;10.27;;;7.30;;
30335;SDS011;17142;47.990;7.846;2022-11-12T08:32:58;7.47;;;5.40;;
30335;SDS011;17142;47.990;7.846;2022-11-12T08:35:25;10.20;;;7.40;;
30335;SDS011;17142;47.990;7.846;2022-11-12T08:37:56;11.27;;;7.40;;
30335;SDS011;17142;47.990;7.846;2022-11-12T08:40:26;8.03;;;6.33;;
30335;SDS011;17142;47.990;7.846;2022-11-12T08:42:58;9.60;;;6.67;;
30335;SDS011;17142;47.990;7.846;2022-11-12T08:45:27;12.77;;;7.20;;
30335;SDS011;17142;47.990;7.846;2022-11-12T08:48:03;8.33;;;6.07;;
30335;SDS011;17142;47.990;7.846;2022-11-12T08:50:36;4.07;;;3.70;;
30335;SDS011;17142;47.990;7.846;2022-11-12T08:53:03;3.80;;;3.30;;
30335;SDS011;17142;47.990;7.846;2022-11-12T08:55:30;4.93;;;3.80;;
30335;SDS011;17142;47.990;7.846;2022-11-12T08:57:59;6.37;;;4.33;;
30335;SDS011;17142;47.990;7.846;2022-11-12T09:00:29;12.00;;;5.13;;
30335;SDS011;17142;47.990;7.846;2022-11-12T09:03:06;7.43;;;5.03;;
30335;SDS011;17142;47.990;7.846;2022-11-12T09:05:36;6.33;;;3.93;;
30335;SDS011;17142;47.990;7.846;2022-11-12T09:08:03;7.27;;;4.13;;
30335;SDS011;17142;47.990;7.846;2022-11-12T09:10:30;9.40;;;4.53;;
30335;SDS011;17142;47.990;7.846;2022-11-12T09:12:59;7.43;;;4.90;;
30335;SDS011;17142;47.990;7.846;2022-11-12T09:15:25;8.40;;;5.80;;
30335;SDS011;17142;47.990;7.846;2022-11-12T09:17:54;7.03;;;4.97;;
30335;SDS011;17142;47.990;7.846;2022-11-12T09:20:20;7.73;;;5.10;;
30335;SDS011;17142;47.990;7.846;2022-11-12T09:22:46;7.60;;;5.43;;
30335;SDS011;17142;47.990;7.846;2022-11-12T09:25:14;7.50;;;4.57;;
30335;SDS011;17142;47.990;7.846;2022-11-12T09:27:40;8.90;;;5.83;;
30335;SDS011;17142;47.990;7.846;2022-11-12T09:30:06;9.07;;;5.67;;
30335;SDS011;17142;47.990;7.846;2022-11-12T09:32:34;8.20;;;6.53;;
30335;SDS011;17142;47.990;7.846;2022-11-12T09:35:00;7.47;;;5.90;;
30335;SDS011;17142;47.990;7.846;2022-11-12T09:37:25;10.23;;;7.23;;
30335;SDS011;17142;47.990;7.846;2022-11-12T09:39:51;8.30;;;6.00;;
30335;SDS011;17142;47.990;7.846;2022-11-12T09:42:20;11.60;;;6.97;;
30335;SDS011;17142;47.990;7.846;2022-11-12T09:50:26;13.30;;;8.57;;
30335;SDS011;17142;47.990;7.846;2022-11-12T09:53:01;12.87;;;7.40;;
30335;SDS011;17142;47.990;7.846;2022-11-12T09:55:49;11.17;;;7.40;;
30335;SDS011;17142;47.990;7.846;2022-11-12T09:58:17;16.30;;;9.27;;
30335;SDS011;17142;47.990;7.846;2022-11-12T10:00:54;12.43;;;8.13;;
30335;SDS011;17142;47.990;7.846;2022-11-12T10:06:28;18.30;;;10.13;;
30335;SDS011;17142;47.990;7.846;2022-11-12T10:09:12;14.30;;;9.00;;
30335;SDS011;17142;47.990;7.846;2022-11-12T10:17:25;13.30;;;9.23;;
30335;SDS011;17142;47.990;7.846;2022-11-12T10:22:46;15.90;;;10.13;;
30335;SDS011;17142;47.990;7.846;2022-11-12T10:25:23;16.43;;;9.27;;
30335;SDS011;17142;47.990;7.846;2022-11-12T10:27:49;18.33;;;10.57;;
30335;SDS011;17142;47.990;7.846;2022-11-12T10:30:19;15.77;;;9.60;;
30335;SDS011;17142;47.990;7.846;2022-11-12T10:32:49;17.03;;;10.60;;
30335;SDS011;17142;47.990;7.846;2022-11-12T10:35:16;16.17;;;10.40;;
30335;SDS011;17142;47.990;7.846;2022-11-12T10:42:56;15.33;;;8.70;;
30335;SDS011;17142;47.990;7.846;2022-11-12T10:45:24;13.10;;;8.30;;
30335;SDS011;17142;47.990;7.846;2022-11-12T10:47:49;15.00;;;9.17;;
30335;SDS011;17142;47.990;7.846;2022-11-12T10:53:03;13.60;;;8.20;;
30335;SDS011;17142;47.990;7.846;2022-11-12T10:55:31;14.73;;;7.77;;
30335;SDS011;17142;47.990;7.846;2022-11-12T11:03:22;12.87;;;8.50;;
30335;SDS011;17142;47.990;7.846;2022-11-12T11:08:43;14.83;;;10.10;;
30335;SDS011;17142;47.990;7.846;2022-11-12T11:13:44;12.30;;;8.50;;
30335;SDS011;17142;47.990;7.846;2022-11-12T11:16:26;15.57;;;9.77;;
30335;SDS011;17142;47.990;7.846;2022-11-12T11:57:29;11.80;;;8.93;;
30335;SDS011;17142;47.990;7.846;2022-11-12T12:02:43;15.10;;;9.87;;
30335;SDS011;17142;47.990;7.846;2022-11-12T12:10:52;16.30;;;11.17;;
30335;SDS011;17142;47.990;7.846;2022-11-12T12:21:21;17.73;;;10.70;;
30335;SDS011;17142;47.990;7.846;2022-11-12T12:26:52;15.10;;;11.17;;
30335;SDS011;17142;47.990;7.846;2022-11-12T12:29:34;18.23;;;10.80;;
30335;SDS011;17142;47.990;7.846;2022-11-12T12:34:37;20.63;;;11.90;;
30335;SDS011;17142;47.990;7.846;2022-11-12T12:37:13;20.37;;;12.33;;
30335;SDS011;17142;47.990;7.846;2022-11-12T12:42:20;20.97;;;12.97;;
30335;SDS011;17142;47.990;7.846;2022-11-12T12:45:00;21.07;;;12.93;;
30335;SDS011;17142;47.990;7.846;2022-11-12T12:47:35;19.20;;;12.80;;
30335;SDS011;17142;47.990;7.846;2022-11-12T12:50:05;17.30;;;11.80;;
30335;SDS011;17142;47.990;7.846;2022-11-12T13:00:52;21.13;;;13.20;;
30335;SDS011;17142;47.990;7.846;2022-11-12T13:40:51;20.43;;;12.63;;
30335;SDS011;17142;47.990;7.846;2022-11-12T13:43:44;21.03;;;11.47;;
30335;SDS011;17142;47.990;7.846;2022-11-12T13:46:26;19.77;;;12.47;;
30335;SDS011;17142;47.990;7.846;2022-11-12T13:48:59;20.80;;;14.00;;
30335;SDS011;17142;47.990;7.846;2022-11-12T13:51:34;22.90;;;12.97;;
30335;SDS011;17142;47.990;7.846;2022-11-12T13:57:11;21.20;;;14.10;;
30335;SDS011;17142;47.990;7.846;2022-11-12T13:59:47;19.53;;;12.40;;
30335;SDS011;17142;47.990;7.846;2022-11-12T14:02:20;19.73;;;12.70;;
30335;SDS011;17142;47.990;7.846;2022-11-12T14:04:49;20.70;;;13.30;;
30335;SDS011;17142;47.990;7.846;2022-11-12T14:13:51;20.63;;;13.00;;
30335;SDS011;17142;47.990;7.846;2022-11-12T14:21:39;24.20;;;13.80;;
30335;SDS011;17142;47.990;7.846;2022-11-12T14:24:09;22.03;;;13.43;;
30335;SDS011;17142;47.990;7.846;2022-11-12T14:26:40;26.53;;;14.20;;
30335;SDS011;17142;47.990;7.846;2022-11-12T14:29:13;22.73;;;13.73;;
30335;SDS011;17142;47.990;7.846;2022-11-12T14:31:41;22.27;;;14.33;;
30335;SDS011;17142;47.990;7.846;2022-11-12T14:36:56;21.57;;;14.27;;
30335;SDS011;17142;47.990;7.846;2022-11-12T14:39:22;23.37;;;14.30;;
30335;SDS011;17142;47.990;7.846;2022-11-12T14:41:49;25.20;;;14.13;;
30335;SDS011;17142;47.990;7.846;2022-11-12T14:44:20;24.47;;;16.17;;
30335;SDS011;17142;47.990;7.846;2022-11-12T14:46:49;25.03;;;14.77;;
30335;SDS011;17142;47.990;7.846;2022-11-12T14:51:53;24.47;;;15.37;;
30335;SDS011;17142;47.990;7.846;2022-11-12T14:54:43;27.07;;;13.30;;
30335;SDS011;17142;47.990;7.846;2022-11-12T14:57:18;27.37;;;14.73;;
30335;SDS011;17142;47.990;7.846;2022-11-12T14:59:49;25.50;;;13.90;;
30335;SDS011;17142;47.990;7.846;2022-11-12T15:04:50;24.57;;;14.57;;
30335;SDS011;17142;47.990;7.846;2022-11-12T15:07:25;22.03;;;13.27;;
30335;SDS011;17142;47.990;7.846;2022-11-12T15:09:56;28.73;;;14.87;;
30335;SDS011;17142;47.990;7.846;2022-11-12T15:12:23;25.13;;;15.57;;
30335;SDS011;17142;47.990;7.846;2022-11-12T15:14:53;25.20;;;14.30;;
30335;SDS011;17142;47.990;7.846;2022-11-12T15:17:32;31.17;;;15.07;;
30335;SDS011;17142;47.990;7.846;2022-11-12T15:20:00;26.40;;;14.30;;
30335;SDS011;17142;47.990;7.846;2022-11-12T15:22:36;22.87;;;14.73;;
30335;SDS011;17142;47.990;7.846;2022-11-12T15:25:16;27.53;;;14.57;;
30335;SDS011;17142;47.990;7.846;2022-11-12T15:27:50;33.40;;;17.07;;
30335;SDS011;17142;47.990;7.846;2022-11-12T15:33:33;37.17;;;15.80;;
30335;SDS011;17142;47.990;7.846;2022-11-12T15:35:46;29.17;;;15.57;;
30335;SDS011;17142;47.990;7.846;2022-11-12T15:38:23;29.77;;;17.40;;
30335;SDS011;17142;47.990;7.846;2022-11-12T15:40:54;28.77;;;17.27;;
30335;SDS011;17142;47.990;7.846;2022-11-12T15:43:22;29.07;;;15.37;;
30335;SDS011;17142;47.990;7.846;2022-11-12T15:45:58;36.50;;;18.13;;
30335;SDS011;17142;47.990;7.846;2022-11-12T15:48:24;30.67;;;16.47;;
30335;SDS011;17142;47.990;7.846;2022-11-12T15:50:49;29.90;;;17.23;;
30335;SDS011;17142;47.990;7.846;2022-11-12T15:53:15;31.00;;;16.23;;
30335;SDS011;17142;47.990;7.846;2022-11-12T15:55:45;27.00;;;15.40;;
30335;SDS011;17142;47.990;7.846;2022-11-12T15:58:16;34.77;;;18.30;;
30335;SDS011;17142;47.990;7.846;2022-11-12T16:00:44;56.90;;;22.57;;
30335;SDS011;17142;47.990;7.846;2022-11-12T16:03:12;45.10;;;21.40;;
30335;SDS011;17142;47.990;7.846;2022-11-12T16:05:45;36.70;;;19.93;;
30335;SDS011;17142;47.990;7.846;2022-11-12T16:08:11;37.50;;;19.47;;
30335;SDS011;17142;47.990;7.846;2022-11-12T16:10:37;30.50;;;18.83;;
30335;SDS011;17142;47.990;7.846;2022-11-12T16:13:05;34.17;;;18.00;;
30335;SDS011;17142;47.990;7.846;2022-11-12T16:15:37;46.23;;;22.67;;
30335;SDS011;17142;47.990;7.846;2022-11-12T16:18:02;39.10;;;17.70;;
30335;SDS011;17142;47.990;7.846;2022-11-12T16:20:31;35.33;;;20.77;;
30335;SDS011;17142;47.990;7.846;2022-11-12T16:23:02;28.80;;;16.33;;
30335;SDS011;17142;47.990;7.846;2022-11-12T16:25:29;34.10;;;18.60;;
30335;SDS011;17142;47.990;7.846;2022-11-12T16:27:57;33.03;;;19.40;;
30335;SDS011;17142;47.990;7.846;2022-11-12T16:30:26;42.60;;;21.50;;
30335;SDS011;17142;47.990;7.846;2022-11-12T16:32:56;34.40;;;17.60;;
30335;SDS011;17142;47.990;7.846;2022-11-12T16:35:25;39.63;;;20.43;;
30335;SDS011;17142;47.990;7.846;2022-11-12T16:37:52;34.60;;;18.70;;
30335;SDS011;17142;47.990;7.846;2022-11-12T16:40:20;32.63;;;17.30;;
30335;SDS011;17142;47.990;7.846;2022-11-12T16:42:48;31.73;;;16.43;;
30335;SDS011;17142;47.990;7.846;2022-11-12T16:45:18;39.83;;;18.97;;
30335;SDS011;17142;47.990;7.846;2022-11-12T16:47:46;43.40;;;28.83;;
30335;SDS011;17142;47.990;7.846;2022-11-12T16:50:16;36.93;;;18.47;;
30335;SDS011;17142;47.990;7.846;2022-11-12T16:52:44;52.40;;;22.93;;
30335;SDS011;17142;47.990;7.846;2022-11-12T16:55:10;32.17;;;19.07;;
30335;SDS011;17142;47.990;7.846;2022-11-12T16:57:38;35.27;;;19.00;;
30335;SDS011;17142;47.990;7.846;2022-11-12T17:00:10;60.07;;;23.97;;
30335;SDS011;17142;47.990;7.846;2022-11-12T17:02:37;43.77;;;21.00;;
30335;SDS011;17142;47.990;7.846;2022-11-12T17:05:03;30.93;;;16.00;;
30335;SDS011;17142;47.990;7.846;2022-11-12T17:07:31;38.30;;;21.67;;
30335;SDS011;17142;47.990;7.846;2022-11-12T17:09:59;37.07;;;20.27;;
30335;SDS011;17142;47.990;7.846;2022-11-12T17:12:25;30.10;;;16.27;;
30335;SDS011;17142;47.990;7.846;2022-11-12T17:14:50;32.03;;;17.03;;
30335;SDS011;17142;47.990;7.846;2022-11-12T17:17:19;31.70;;;15.30;;
30335;SDS011;17142;47.990;7.846;2022-11-12T17:19:47;30.87;;;16.43;;
30335;SDS011;17142;47.990;7.846;2022-11-12T17:22:13;26.83;;;14.20;;
30335;SDS011;17142;47.990;7.846;2022-11-12T17:24:38;31.33;;;18.57;;
30335;SDS011;17142;47.990;7.846;2022-11-12T17:27:06;29.40;;;16.33;;
30335;SDS011;17142;47.990;7.846;2022-11-12T17:29:32;33.43;;;16.43;;
30335;SDS011;17142;47.990;7.846;2022-11-12T17:31:58;30.13;;;17.13;;
30335;SDS011;17142;47.990;7.846;2022-11-12T17:34:25;23.10;;;12.70;;
30335;SDS011;17142;47.990;7.846;2022-11-12T17:36:51;35.60;;;19.53;;
30335;SDS011;17142;47.990;7.846;2022-11-12T17:39:17;35.73;;;17.83;;
30335;SDS011;17142;47.990;7.846;2022-11-12T17:41:42;26.40;;;15.27;;
30335;SDS011;17142;47.990;7.846;2022-11-12T17:44:10;18.77;;;11.87;;
30335;SDS011;17142;47.990;7.846;2022-11-12T17:46:42;32.27;;;16.80;;